sensor_id;sensor_type;location;lat;lon;timestamp;temperature;humidity
1259;DHT22;619;51.472;6.628;2023-04-25T00:02:25;12.40;70.80
1259;DHT22;619;51.472;6.628;2023-04-25T00:04:53;12.40;70.80
1259;DHT22;619;51.472;6.628;2023-04-25T00:07:19;12.40;70.90
1259;DHT22;619;51.472;6.628;2023-04-25T00:09:47;12.40;70.80
1259;DHT22;619;51.472;6.628;2023-04-25T00:12:17;12.40;70.90
1259;DHT22;619;51.472;6.628;2023-04-25T00:14:49;12.40;71.00
1259;DHT22;619;51.472;6.628;2023-04-25T00:17:15;12.40;71.10
1259;DHT22;619;51.472;6.628;2023-04-25T00:19:42;12.40;71.10
1259;DHT22;619;51.472;6.628;2023-04-25T00:22:10;12.40;71.00
1259;DHT22;619;51.472;6.628;2023-04-25T00:24:38;12.40;70.90
1259;DHT22;619;51.472;6.628;2023-04-25T00:27:03;12.40;70.80
1259;DHT22;619;51.472;6.628;2023-04-25T00:29:29;12.40;70.80
1259;DHT22;619;51.472;6.628;2023-04-25T00:31:57;12.30;70.90
1259;DHT22;619;51.472;6.628;2023-04-25T00:34:25;12.20;71.00
1259;DHT22;619;51.472;6.628;2023-04-25T00:36:53;12.20;71.30
1259;DHT22;619;51.472;6.628;2023-04-25T00:39:21;12.20;71.50
1259;DHT22;619;51.472;6.628;2023-04-25T00:41:50;12.10;71.60
1259;DHT22;619;51.472;6.628;2023-04-25T00:44:18;12.10;71.80
1259;DHT22;619;51.472;6.628;2023-04-25T00:46:47;12.00;72.10
1259;DHT22;619;51.472;6.628;2023-04-25T00:49:18;12.00;72.30
1259;DHT22;619;51.472;6.628;2023-04-25T00:51:46;12.00;72.50
1259;DHT22;619;51.472;6.628;2023-04-25T00:54:14;12.10;72.70
1259;DHT22;619;51.472;6.628;2023-04-25T00:56:44;12.10;72.80
1259;DHT22;619;51.472;6.628;2023-04-25T00:59:13;12.20;72.90
1259;DHT22;619;51.472;6.628;2023-04-25T01:01:41;12.20;73.00
1259;DHT22;619;51.472;6.628;2023-04-25T01:04:09;12.30;73.20
1259;DHT22;619;51.472;6.628;2023-04-25T01:06:35;12.40;73.30
1259;DHT22;619;51.472;6.628;2023-04-25T01:09:01;12.40;73.10
1259;DHT22;619;51.472;6.628;2023-04-25T01:11:27;12.40;73.10
1259;DHT22;619;51.472;6.628;2023-04-25T01:13:55;12.40;73.00
1259;DHT22;619;51.472;6.628;2023-04-25T01:16:21;12.50;73.10
1259;DHT22;619;51.472;6.628;2023-04-25T01:18:50;12.50;73.10
1259;DHT22;619;51.472;6.628;2023-04-25T01:21:16;12.50;73.10
1259;DHT22;619;51.472;6.628;2023-04-25T01:23:44;12.60;73.10
1259;DHT22;619;51.472;6.628;2023-04-25T01:26:11;12.60;73.10
1259;DHT22;619;51.472;6.628;2023-04-25T01:28:38;12.60;73.00
1259;DHT22;619;51.472;6.628;2023-04-25T01:31:09;12.60;72.90
1259;DHT22;619;51.472;6.628;2023-04-25T01:33:35;12.60;72.80
1259;DHT22;619;51.472;6.628;2023-04-25T01:36:01;12.60;72.80
1259;DHT22;619;51.472;6.628;2023-04-25T01:38:27;12.70;72.90
1259;DHT22;619;51.472;6.628;2023-04-25T01:40:53;12.70;72.80
1259;DHT22;619;51.472;6.628;2023-04-25T01:43:20;12.80;72.90
1259;DHT22;619;51.472;6.628;2023-04-25T01:45:49;12.80;72.90
1259;DHT22;619;51.472;6.628;2023-04-25T01:48:17;12.80;72.90
1259;DHT22;619;51.472;6.628;2023-04-25T01:50:48;12.80;72.80
1259;DHT22;619;51.472;6.628;2023-04-25T01:53:14;12.80;72.80
1259;DHT22;619;51.472;6.628;2023-04-25T01:55:42;12.80;72.80
1259;DHT22;619;51.472;6.628;2023-04-25T01:58:10;12.80;72.70
1259;DHT22;619;51.472;6.628;2023-04-25T02:00:38;12.90;72.70
1259;DHT22;619;51.472;6.628;2023-04-25T02:03:08;12.80;72.50
1259;DHT22;619;51.472;6.628;2023-04-25T02:05:41;12.80;72.50
1259;DHT22;619;51.472;6.628;2023-04-25T02:08:08;12.80;72.50
1259;DHT22;619;51.472;6.628;2023-04-25T02:10:36;12.80;72.50
1259;DHT22;619;51.472;6.628;2023-04-25T02:13:04;12.80;72.60
1259;DHT22;619;51.472;6.628;2023-04-25T02:15:32;12.80;72.60
1259;DHT22;619;51.472;6.628;2023-04-25T02:17:58;12.80;72.60
1259;DHT22;619;51.472;6.628;2023-04-25T02:20:25;12.80;72.70
1259;DHT22;619;51.472;6.628;2023-04-25T02:22:52;12.80;72.70
1259;DHT22;619;51.472;6.628;2023-04-25T02:25:20;12.80;72.90
1259;DHT22;619;51.472;6.628;2023-04-25T02:27:50;12.80;72.90
1259;DHT22;619;51.472;6.628;2023-04-25T02:30:19;12.70;72.80
1259;DHT22;619;51.472;6.628;2023-04-25T02:32:45;12.70;73.10
1259;DHT22;619;51.472;6.628;2023-04-25T02:35:10;12.70;73.10
1259;DHT22;619;51.472;6.628;2023-04-25T02:37:39;12.70;73.20
1259;DHT22;619;51.472;6.628;2023-04-25T02:40:12;12.70;73.40
1259;DHT22;619;51.472;6.628;2023-04-25T02:42:38;12.60;73.40
1259;DHT22;619;51.472;6.628;2023-04-25T02:45:06;12.60;73.30
1259;DHT22;619;51.472;6.628;2023-04-25T02:47:32;12.50;73.30
1259;DHT22;619;51.472;6.628;2023-04-25T02:49:58;12.50;73.60
1259;DHT22;619;51.472;6.628;2023-04-25T02:52:26;12.50;73.80
1259;DHT22;619;51.472;6.628;2023-04-25T02:54:51;12.50;74.20
1259;DHT22;619;51.472;6.628;2023-04-25T02:57:17;12.50;74.10
1259;DHT22;619;51.472;6.628;2023-04-25T02:59:45;12.50;74.10
1259;DHT22;619;51.472;6.628;2023-04-25T03:02:10;12.50;74.00
1259;DHT22;619;51.472;6.628;2023-04-25T03:04:36;12.50;74.00
1259;DHT22;619;51.472;6.628;2023-04-25T03:07:02;12.60;74.00
1259;DHT22;619;51.472;6.628;2023-04-25T03:09:27;12.60;73.90
1259;DHT22;619;51.472;6.628;2023-04-25T03:11:53;12.60;74.70
1259;DHT22;619;51.472;6.628;2023-04-25T03:14:25;12.60;73.90
1259;DHT22;619;51.472;6.628;2023-04-25T03:16:51;12.60;73.90
1259;DHT22;619;51.472;6.628;2023-04-25T03:19:16;12.60;73.80
1259;DHT22;619;51.472;6.628;2023-04-25T03:21:43;12.60;73.80
1259;DHT22;619;51.472;6.628;2023-04-25T03:24:11;12.60;73.90
1259;DHT22;619;51.472;6.628;2023-04-25T03:26:38;12.60;73.80
1259;DHT22;619;51.472;6.628;2023-04-25T03:29:04;12.60;73.80
1259;DHT22;619;51.472;6.628;2023-04-25T03:31:30;12.60;73.80
1259;DHT22;619;51.472;6.628;2023-04-25T03:33:56;12.60;74.50
1259;DHT22;619;51.472;6.628;2023-04-25T03:36:24;12.60;73.70
1259;DHT22;619;51.472;6.628;2023-04-25T03:38:49;12.50;73.60
1259;DHT22;619;51.472;6.628;2023-04-25T03:41:17;12.50;73.70
1259;DHT22;619;51.472;6.628;2023-04-25T03:43:45;12.40;73.60
1259;DHT22;619;51.472;6.628;2023-04-25T03:46:13;12.40;73.70
1259;DHT22;619;51.472;6.628;2023-04-25T03:48:41;12.40;73.90
1259;DHT22;619;51.472;6.628;2023-04-25T03:51:06;12.30;73.90
1259;DHT22;619;51.472;6.628;2023-04-25T03:53:34;12.20;73.90
1259;DHT22;619;51.472;6.628;2023-04-25T03:56:02;12.20;74.00
1259;DHT22;619;51.472;6.628;2023-04-25T03:58:28;12.20;74.10
1259;DHT22;619;51.472;6.628;2023-04-25T04:00:53;12.10;74.10
1259;DHT22;619;51.472;6.628;2023-04-25T04:03:19;12.10;74.20
1259;DHT22;619;51.472;6.628;2023-04-25T04:05:45;12.00;74.20
1259;DHT22;619;51.472;6.628;2023-04-25T04:08:11;12.00;74.20
1259;DHT22;619;51.472;6.628;2023-04-25T04:10:39;11.90;74.20
1259;DHT22;619;51.472;6.628;2023-04-25T04:13:05;11.80;74.30
1259;DHT22;619;51.472;6.628;2023-04-25T04:15:33;11.80;74.50
1259;DHT22;619;51.472;6.628;2023-04-25T04:18:01;11.70;74.50
1259;DHT22;619;51.472;6.628;2023-04-25T04:20:31;11.70;74.70
1259;DHT22;619;51.472;6.628;2023-04-25T04:22:59;11.60;74.80
1259;DHT22;619;51.472;6.628;2023-04-25T04:25:25;11.50;74.90
1259;DHT22;619;51.472;6.628;2023-04-25T04:27:53;11.50;75.10
1259;DHT22;619;51.472;6.628;2023-04-25T04:30:24;11.40;75.20
1259;DHT22;619;51.472;6.628;2023-04-25T04:32:57;11.40;75.30
1259;DHT22;619;51.472;6.628;2023-04-25T04:35:28;11.30;75.30
1259;DHT22;619;51.472;6.628;2023-04-25T04:37:54;11.30;75.30
1259;DHT22;619;51.472;6.628;2023-04-25T04:40:19;11.30;75.40
1259;DHT22;619;51.472;6.628;2023-04-25T04:42:45;11.20;75.40
1259;DHT22;619;51.472;6.628;2023-04-25T04:45:14;11.20;75.50
1259;DHT22;619;51.472;6.628;2023-04-25T04:47:42;11.30;75.70
1259;DHT22;619;51.472;6.628;2023-04-25T04:50:09;11.30;75.70
1259;DHT22;619;51.472;6.628;2023-04-25T04:52:36;11.30;75.40
1259;DHT22;619;51.472;6.628;2023-04-25T04:55:03;11.20;75.10
1259;DHT22;619;51.472;6.628;2023-04-25T04:57:29;11.30;75.10
1259;DHT22;619;51.472;6.628;2023-04-25T04:59:58;11.20;75.10
1259;DHT22;619;51.472;6.628;2023-04-25T05:02:24;11.20;75.20
1259;DHT22;619;51.472;6.628;2023-04-25T05:04:49;11.20;75.00
1259;DHT22;619;51.472;6.628;2023-04-25T05:07:17;11.20;75.00
1259;DHT22;619;51.472;6.628;2023-04-25T05:09:42;11.20;75.10
1259;DHT22;619;51.472;6.628;2023-04-25T05:12:08;11.30;75.30
1259;DHT22;619;51.472;6.628;2023-04-25T05:14:40;11.30;75.20
1259;DHT22;619;51.472;6.628;2023-04-25T05:17:08;11.40;75.10
1259;DHT22;619;51.472;6.628;2023-04-25T05:19:36;11.40;74.80
1259;DHT22;619;51.472;6.628;2023-04-25T05:22:02;11.50;74.80
1259;DHT22;619;51.472;6.628;2023-04-25T05:24:30;11.50;74.80
1259;DHT22;619;51.472;6.628;2023-04-25T05:26:58;11.60;74.30
1259;DHT22;619;51.472;6.628;2023-04-25T05:29:24;11.60;74.10
1259;DHT22;619;51.472;6.628;2023-04-25T05:31:52;11.60;74.00
1259;DHT22;619;51.472;6.628;2023-04-25T05:34:18;11.70;74.10
1259;DHT22;619;51.472;6.628;2023-04-25T05:36:44;11.80;74.10
1259;DHT22;619;51.472;6.628;2023-04-25T05:39:12;11.90;73.80
1259;DHT22;619;51.472;6.628;2023-04-25T05:41:39;12.00;73.80
1259;DHT22;619;51.472;6.628;2023-04-25T05:44:05;12.10;73.60
1259;DHT22;619;51.472;6.628;2023-04-25T05:46:31;12.20;73.30
1259;DHT22;619;51.472;6.628;2023-04-25T05:48:58;12.20;72.30
1259;DHT22;619;51.472;6.628;2023-04-25T05:51:27;12.30;71.80
1259;DHT22;619;51.472;6.628;2023-04-25T05:53:52;12.30;71.80
1259;DHT22;619;51.472;6.628;2023-04-25T05:56:18;12.40;71.60
1259;DHT22;619;51.472;6.628;2023-04-25T05:58:44;12.50;71.30
1259;DHT22;619;51.472;6.628;2023-04-25T06:01:09;12.60;71.20
1259;DHT22;619;51.472;6.628;2023-04-25T06:03:37;12.50;70.20
1259;DHT22;619;51.472;6.628;2023-04-25T06:06:03;12.60;69.90
1259;DHT22;619;51.472;6.628;2023-04-25T06:08:29;12.60;70.10
1259;DHT22;619;51.472;6.628;2023-04-25T06:10:55;12.60;70.00
1259;DHT22;619;51.472;6.628;2023-04-25T06:13:22;12.60;70.00
1259;DHT22;619;51.472;6.628;2023-04-25T06:15:50;12.50;69.60
1259;DHT22;619;51.472;6.628;2023-04-25T06:18:18;12.50;69.70
1259;DHT22;619;51.472;6.628;2023-04-25T06:20:47;12.50;69.80
1259;DHT22;619;51.472;6.628;2023-04-25T06:23:12;12.40;70.00
1259;DHT22;619;51.472;6.628;2023-04-25T06:25:40;12.40;70.10
1259;DHT22;619;51.472;6.628;2023-04-25T06:28:08;12.30;70.20
1259;DHT22;619;51.472;6.628;2023-04-25T06:30:36;12.30;70.00
1259;DHT22;619;51.472;6.628;2023-04-25T06:33:01;12.30;70.30
1259;DHT22;619;51.472;6.628;2023-04-25T06:35:27;12.30;70.20
1259;DHT22;619;51.472;6.628;2023-04-25T06:37:52;12.40;70.30
1259;DHT22;619;51.472;6.628;2023-04-25T06:40:18;12.40;70.10
1259;DHT22;619;51.472;6.628;2023-04-25T06:42:44;12.50;70.20
1259;DHT22;619;51.472;6.628;2023-04-25T06:45:11;12.50;70.00
1259;DHT22;619;51.472;6.628;2023-04-25T06:47:37;12.50;70.00
1259;DHT22;619;51.472;6.628;2023-04-25T06:50:03;12.50;69.80
1259;DHT22;619;51.472;6.628;2023-04-25T06:52:29;12.60;70.30
1259;DHT22;619;51.472;6.628;2023-04-25T06:54:57;12.70;70.20
1259;DHT22;619;51.472;6.628;2023-04-25T06:57:23;12.70;69.50
1259;DHT22;619;51.472;6.628;2023-04-25T06:59:48;12.90;69.50
1259;DHT22;619;51.472;6.628;2023-04-25T07:02:17;13.00;69.10
1259;DHT22;619;51.472;6.628;2023-04-25T07:04:46;13.20;69.00
1259;DHT22;619;51.472;6.628;2023-04-25T07:07:14;13.40;69.60
1259;DHT22;619;51.472;6.628;2023-04-25T07:09:40;13.60;68.50
1259;DHT22;619;51.472;6.628;2023-04-25T07:12:05;13.70;67.60
1259;DHT22;619;51.472;6.628;2023-04-25T07:14:31;13.90;67.40
1259;DHT22;619;51.472;6.628;2023-04-25T07:16:59;13.90;66.10
1259;DHT22;619;51.472;6.628;2023-04-25T07:19:29;14.00;65.60
1259;DHT22;619;51.472;6.628;2023-04-25T07:21:55;13.90;64.70
1259;DHT22;619;51.472;6.628;2023-04-25T07:24:23;13.80;64.90
1259;DHT22;619;51.472;6.628;2023-04-25T07:26:51;13.90;65.10
1259;DHT22;619;51.472;6.628;2023-04-25T07:29:16;13.90;64.80
1259;DHT22;619;51.472;6.628;2023-04-25T07:31:42;13.90;64.40
1259;DHT22;619;51.472;6.628;2023-04-25T07:34:07;13.90;65.00
1259;DHT22;619;51.472;6.628;2023-04-25T07:36:36;13.90;64.70
1259;DHT22;619;51.472;6.628;2023-04-25T07:39:01;14.00;63.90
1259;DHT22;619;51.472;6.628;2023-04-25T07:41:27;14.00;63.20
1259;DHT22;619;51.472;6.628;2023-04-25T07:43:54;14.00;62.70
1259;DHT22;619;51.472;6.628;2023-04-25T07:46:20;14.00;62.60
1259;DHT22;619;51.472;6.628;2023-04-25T07:48:46;14.00;62.40
1259;DHT22;619;51.472;6.628;2023-04-25T07:51:16;13.90;61.80
1259;DHT22;619;51.472;6.628;2023-04-25T07:53:42;13.90;62.30
1259;DHT22;619;51.472;6.628;2023-04-25T07:56:07;14.00;62.20
1259;DHT22;619;51.472;6.628;2023-04-25T07:58:33;14.10;62.80
1259;DHT22;619;51.472;6.628;2023-04-25T08:00:59;14.20;61.90
1259;DHT22;619;51.472;6.628;2023-04-25T08:03:25;14.30;61.80
1259;DHT22;619;51.472;6.628;2023-04-25T08:05:50;14.40;60.20
1259;DHT22;619;51.472;6.628;2023-04-25T08:08:16;14.60;59.60
1259;DHT22;619;51.472;6.628;2023-04-25T08:10:44;14.70;60.40
1259;DHT22;619;51.472;6.628;2023-04-25T08:13:10;14.90;61.00
1259;DHT22;619;51.472;6.628;2023-04-25T08:15:35;15.10;59.70
1259;DHT22;619;51.472;6.628;2023-04-25T08:18:03;15.30;59.90
1259;DHT22;619;51.472;6.628;2023-04-25T08:20:29;15.50;59.60
1259;DHT22;619;51.472;6.628;2023-04-25T08:22:54;15.70;58.90
1259;DHT22;619;51.472;6.628;2023-04-25T08:25:25;15.80;58.20
1259;DHT22;619;51.472;6.628;2023-04-25T08:27:53;15.90;58.50
1259;DHT22;619;51.472;6.628;2023-04-25T08:30:21;16.10;58.10
1259;DHT22;619;51.472;6.628;2023-04-25T08:32:46;16.20;57.40
1259;DHT22;619;51.472;6.628;2023-04-25T08:35:14;16.20;58.20
1259;DHT22;619;51.472;6.628;2023-04-25T08:37:44;16.30;57.30
1259;DHT22;619;51.472;6.628;2023-04-25T08:40:12;16.40;56.70
1259;DHT22;619;51.472;6.628;2023-04-25T08:42:43;16.40;56.60
1259;DHT22;619;51.472;6.628;2023-04-25T08:45:09;16.40;57.50
1259;DHT22;619;51.472;6.628;2023-04-25T08:47:39;16.40;57.60
1259;DHT22;619;51.472;6.628;2023-04-25T08:50:07;16.50;56.60
1259;DHT22;619;51.472;6.628;2023-04-25T08:52:44;16.50;55.80
1259;DHT22;619;51.472;6.628;2023-04-25T08:55:12;16.50;54.20
1259;DHT22;619;51.472;6.628;2023-04-25T08:57:40;16.60;54.60
1259;DHT22;619;51.472;6.628;2023-04-25T09:00:10;16.80;54.90
1259;DHT22;619;51.472;6.628;2023-04-25T09:02:44;16.90;54.30
1259;DHT22;619;51.472;6.628;2023-04-25T09:05:13;17.00;54.10
1259;DHT22;619;51.472;6.628;2023-04-25T09:07:39;17.00;53.50
1259;DHT22;619;51.472;6.628;2023-04-25T09:10:05;17.10;53.90
1259;DHT22;619;51.472;6.628;2023-04-25T09:12:35;17.10;53.70
1259;DHT22;619;51.472;6.628;2023-04-25T09:15:12;17.20;53.40
1259;DHT22;619;51.472;6.628;2023-04-25T09:17:41;17.30;51.40
1259;DHT22;619;51.472;6.628;2023-04-25T09:20:14;17.40;51.00
1259;DHT22;619;51.472;6.628;2023-04-25T09:22:40;17.50;51.00
1259;DHT22;619;51.472;6.628;2023-04-25T09:25:11;17.50;50.40
1259;DHT22;619;51.472;6.628;2023-04-25T09:27:51;17.50;50.10
1259;DHT22;619;51.472;6.628;2023-04-25T09:30:17;17.40;49.50
1259;DHT22;619;51.472;6.628;2023-04-25T09:32:44;17.40;49.90
1259;DHT22;619;51.472;6.628;2023-04-25T09:35:10;17.40;50.80
1259;DHT22;619;51.472;6.628;2023-04-25T09:37:37;17.50;51.40
1259;DHT22;619;51.472;6.628;2023-04-25T09:40:05;17.50;50.80
1259;DHT22;619;51.472;6.628;2023-04-25T09:42:33;17.50;50.70
1259;DHT22;619;51.472;6.628;2023-04-25T09:45:01;17.60;50.10
1259;DHT22;619;51.472;6.628;2023-04-25T09:47:30;17.60;49.80
1259;DHT22;619;51.472;6.628;2023-04-25T09:49:56;17.50;49.80
1259;DHT22;619;51.472;6.628;2023-04-25T09:52:25;17.50;51.00
1259;DHT22;619;51.472;6.628;2023-04-25T09:54:51;17.60;50.80
1259;DHT22;619;51.472;6.628;2023-04-25T09:57:17;17.80;51.60
1259;DHT22;619;51.472;6.628;2023-04-25T10:02:17;18.10;49.20
1259;DHT22;619;51.472;6.628;2023-04-25T10:04:48;18.10;49.20
1259;DHT22;619;51.472;6.628;2023-04-25T10:07:24;18.00;48.30
1259;DHT22;619;51.472;6.628;2023-04-25T10:09:58;17.80;48.50
1259;DHT22;619;51.472;6.628;2023-04-25T10:12:35;17.60;49.40
1259;DHT22;619;51.472;6.628;2023-04-25T10:15:04;17.40;49.60
1259;DHT22;619;51.472;6.628;2023-04-25T10:17:31;17.30;49.20
1259;DHT22;619;51.472;6.628;2023-04-25T10:19:58;17.30;49.20
1259;DHT22;619;51.472;6.628;2023-04-25T10:24:55;17.50;50.60
1259;DHT22;619;51.472;6.628;2023-04-25T10:27:22;17.70;48.20
1259;DHT22;619;51.472;6.628;2023-04-25T10:30:10;17.90;47.50
1259;DHT22;619;51.472;6.628;2023-04-25T10:32:44;18.10;48.30
1259;DHT22;619;51.472;6.628;2023-04-25T10:38:02;18.40;47.00
1259;DHT22;619;51.472;6.628;2023-04-25T10:40:29;18.40;46.70
1259;DHT22;619;51.472;6.628;2023-04-25T10:45:59;17.90;46.90
1259;DHT22;619;51.472;6.628;2023-04-25T10:48:32;17.60;50.10
1259;DHT22;619;51.472;6.628;2023-04-25T10:53:56;17.10;52.50
1259;DHT22;619;51.472;6.628;2023-04-25T10:56:23;16.80;52.60
1259;DHT22;619;51.472;6.628;2023-04-25T10:58:50;16.60;53.50
1259;DHT22;619;51.472;6.628;2023-04-25T11:01:24;16.30;54.40
1259;DHT22;619;51.472;6.628;2023-04-25T11:03:59;16.20;55.80
1259;DHT22;619;51.472;6.628;2023-04-25T11:09:10;15.90;57.00
1259;DHT22;619;51.472;6.628;2023-04-25T11:11:40;15.80;58.00
1259;DHT22;619;51.472;6.628;2023-04-25T11:14:06;15.80;58.40
1259;DHT22;619;51.472;6.628;2023-04-25T11:16:34;15.90;58.60
1259;DHT22;619;51.472;6.628;2023-04-25T11:19:03;15.90;58.70
1259;DHT22;619;51.472;6.628;2023-04-25T11:21:30;15.90;58.30
1259;DHT22;619;51.472;6.628;2023-04-25T11:23:57;16.00;58.20
1259;DHT22;619;51.472;6.628;2023-04-25T11:26:25;16.00;58.10
1259;DHT22;619;51.472;6.628;2023-04-25T11:28:51;16.00;58.00
1259;DHT22;619;51.472;6.628;2023-04-25T11:31:22;15.90;58.00
1259;DHT22;619;51.472;6.628;2023-04-25T11:33:51;15.80;57.40
1259;DHT22;619;51.472;6.628;2023-04-25T11:38:46;15.60;57.10
1259;DHT22;619;51.472;6.628;2023-04-25T11:41:12;15.30;58.60
1259;DHT22;619;51.472;6.628;2023-04-25T11:43:40;15.10;59.20
1259;DHT22;619;51.472;6.628;2023-04-25T11:46:11;14.90;59.80
1259;DHT22;619;51.472;6.628;2023-04-25T11:48:40;14.90;60.90
1259;DHT22;619;51.472;6.628;2023-04-25T11:51:05;15.00;61.50
1259;DHT22;619;51.472;6.628;2023-04-25T12:01:33;15.00;60.70
1259;DHT22;619;51.472;6.628;2023-04-25T12:04:16;15.50;61.00
1259;DHT22;619;51.472;6.628;2023-04-25T12:06:46;15.70;62.20
1259;DHT22;619;51.472;6.628;2023-04-25T12:09:14;15.90;62.20
1259;DHT22;619;51.472;6.628;2023-04-25T12:11:45;16.20;61.00
1259;DHT22;619;51.472;6.628;2023-04-25T12:14:11;16.50;60.40
1259;DHT22;619;51.472;6.628;2023-04-25T12:16:46;16.80;58.50
1259;DHT22;619;51.472;6.628;2023-04-25T12:19:16;17.20;56.50
1259;DHT22;619;51.472;6.628;2023-04-25T12:21:43;17.50;54.80
1259;DHT22;619;51.472;6.628;2023-04-25T12:24:22;17.70;53.30
1259;DHT22;619;51.472;6.628;2023-04-25T12:29:22;18.40;53.20
1259;DHT22;619;51.472;6.628;2023-04-25T12:31:52;18.70;52.00
1259;DHT22;619;51.472;6.628;2023-04-25T12:34:21;18.90;51.90
1259;DHT22;619;51.472;6.628;2023-04-25T12:36:48;19.20;51.40
1259;DHT22;619;51.472;6.628;2023-04-25T12:39:16;19.40;51.30
1259;DHT22;619;51.472;6.628;2023-04-25T12:41:45;19.50;51.50
1259;DHT22;619;51.472;6.628;2023-04-25T12:44:12;19.50;50.40
1259;DHT22;619;51.472;6.628;2023-04-25T12:46:37;19.70;51.60
1259;DHT22;619;51.472;6.628;2023-04-25T12:49:08;19.50;50.30
1259;DHT22;619;51.472;6.628;2023-04-25T12:51:37;19.10;49.70
1259;DHT22;619;51.472;6.628;2023-04-25T12:54:07;18.80;50.00
1259;DHT22;619;51.472;6.628;2023-04-25T12:56:36;18.60;50.80
1259;DHT22;619;51.472;6.628;2023-04-25T12:59:02;18.40;52.30
1259;DHT22;619;51.472;6.628;2023-04-25T13:01:30;18.10;53.10
1259;DHT22;619;51.472;6.628;2023-04-25T13:03:59;17.90;54.00
1259;DHT22;619;51.472;6.628;2023-04-25T13:06:25;17.70;53.80
1259;DHT22;619;51.472;6.628;2023-04-25T13:08:51;17.60;53.80
1259;DHT22;619;51.472;6.628;2023-04-25T13:11:19;17.60;54.60
1259;DHT22;619;51.472;6.628;2023-04-25T13:13:47;17.70;54.40
1259;DHT22;619;51.472;6.628;2023-04-25T13:16:15;17.80;53.30
1259;DHT22;619;51.472;6.628;2023-04-25T13:18:41;18.00;53.40
1259;DHT22;619;51.472;6.628;2023-04-25T13:21:09;18.10;52.30
1259;DHT22;619;51.472;6.628;2023-04-25T13:23:34;18.30;52.60
1259;DHT22;619;51.472;6.628;2023-04-25T13:26:02;18.60;51.50
1259;DHT22;619;51.472;6.628;2023-04-25T13:28:30;18.80;50.40
1259;DHT22;619;51.472;6.628;2023-04-25T13:31:02;18.90;48.80
1259;DHT22;619;51.472;6.628;2023-04-25T13:33:28;18.90;48.80
1259;DHT22;619;51.472;6.628;2023-04-25T13:35:56;18.90;49.10
1259;DHT22;619;51.472;6.628;2023-04-25T13:38:24;18.70;47.70
1259;DHT22;619;51.472;6.628;2023-04-25T13:40:50;18.40;47.50
1259;DHT22;619;51.472;6.628;2023-04-25T13:43:21;18.20;47.50
1259;DHT22;619;51.472;6.628;2023-04-25T13:45:50;17.90;47.40
1259;DHT22;619;51.472;6.628;2023-04-25T13:48:16;17.80;48.10
1259;DHT22;619;51.472;6.628;2023-04-25T13:50:41;17.70;48.70
1259;DHT22;619;51.472;6.628;2023-04-25T13:53:09;17.50;48.60
1259;DHT22;619;51.472;6.628;2023-04-25T13:55:35;17.60;49.00
1259;DHT22;619;51.472;6.628;2023-04-25T13:58:04;17.70;49.60
1259;DHT22;619;51.472;6.628;2023-04-25T14:00:36;17.70;48.40
1259;DHT22;619;51.472;6.628;2023-04-25T14:03:04;17.70;48.50
1259;DHT22;619;51.472;6.628;2023-04-25T14:05:34;17.70;48.80
1259;DHT22;619;51.472;6.628;2023-04-25T14:08:04;17.80;48.40
1259;DHT22;619;51.472;6.628;2023-04-25T14:10:30;17.90;48.00
1259;DHT22;619;51.472;6.628;2023-04-25T14:12:58;17.80;46.00
1259;DHT22;619;51.472;6.628;2023-04-25T14:15:24;17.60;44.60
1259;DHT22;619;51.472;6.628;2023-04-25T14:17:52;17.60;44.80
1259;DHT22;619;51.472;6.628;2023-04-25T14:20:18;17.50;45.00
1259;DHT22;619;51.472;6.628;2023-04-25T14:22:46;17.50;46.00
1259;DHT22;619;51.472;6.628;2023-04-25T14:25:11;17.20;47.40
1259;DHT22;619;51.472;6.628;2023-04-25T14:27:39;17.10;48.40
1259;DHT22;619;51.472;6.628;2023-04-25T14:30:07;16.70;49.20
1259;DHT22;619;51.472;6.628;2023-04-25T14:32:37;16.50;50.30
1259;DHT22;619;51.472;6.628;2023-04-25T14:35:03;16.30;50.90
1259;DHT22;619;51.472;6.628;2023-04-25T14:37:29;16.30;51.50
1259;DHT22;619;51.472;6.628;2023-04-25T14:39:56;16.30;52.30
1259;DHT22;619;51.472;6.628;2023-04-25T14:42:22;16.40;52.20
1259;DHT22;619;51.472;6.628;2023-04-25T14:44:51;16.30;51.00
1259;DHT22;619;51.472;6.628;2023-04-25T14:47:19;16.40;50.70
1259;DHT22;619;51.472;6.628;2023-04-25T14:49:47;16.50;51.40
1259;DHT22;619;51.472;6.628;2023-04-25T14:52:22;16.70;50.90
1259;DHT22;619;51.472;6.628;2023-04-25T14:54:50;16.90;50.40
1259;DHT22;619;51.472;6.628;2023-04-25T14:57:19;16.90;49.80
1259;DHT22;619;51.472;6.628;2023-04-25T14:59:44;16.90;50.00
1259;DHT22;619;51.472;6.628;2023-04-25T15:02:11;16.80;49.50
1259;DHT22;619;51.472;6.628;2023-04-25T15:04:36;16.60;48.70
1259;DHT22;619;51.472;6.628;2023-04-25T15:07:05;16.50;49.00
1259;DHT22;619;51.472;6.628;2023-04-25T15:09:33;16.30;49.10
1259;DHT22;619;51.472;6.628;2023-04-25T15:11:58;16.20;49.40
1259;DHT22;619;51.472;6.628;2023-04-25T15:14:29;16.20;49.80
1259;DHT22;619;51.472;6.628;2023-04-25T15:16:54;16.30;50.30
1259;DHT22;619;51.472;6.628;2023-04-25T15:19:25;16.30;50.60
1259;DHT22;619;51.472;6.628;2023-04-25T15:21:55;16.40;50.40
1259;DHT22;619;51.472;6.628;2023-04-25T15:24:24;16.80;51.80
1259;DHT22;619;51.472;6.628;2023-04-25T15:26:52;17.20;49.70
1259;DHT22;619;51.472;6.628;2023-04-25T15:29:22;17.60;48.30
1259;DHT22;619;51.472;6.628;2023-04-25T15:31:52;17.70;47.70
1259;DHT22;619;51.472;6.628;2023-04-25T15:34:20;17.80;47.90
1259;DHT22;619;51.472;6.628;2023-04-25T15:36:46;17.90;47.70
1259;DHT22;619;51.472;6.628;2023-04-25T15:39:14;18.10;46.90
1259;DHT22;619;51.472;6.628;2023-04-25T15:41:42;18.40;47.20
1259;DHT22;619;51.472;6.628;2023-04-25T15:44:10;18.60;46.20
1259;DHT22;619;51.472;6.628;2023-04-25T15:46:38;18.90;45.40
1259;DHT22;619;51.472;6.628;2023-04-25T15:49:06;19.20;45.70
1259;DHT22;619;51.472;6.628;2023-04-25T15:51:34;19.50;45.60
1259;DHT22;619;51.472;6.628;2023-04-25T15:54:00;19.50;44.60
1259;DHT22;619;51.472;6.628;2023-04-25T15:56:28;19.10;44.30
1259;DHT22;619;51.472;6.628;2023-04-25T15:58:56;18.90;45.30
1259;DHT22;619;51.472;6.628;2023-04-25T16:01:26;18.90;44.80
1259;DHT22;619;51.472;6.628;2023-04-25T16:03:55;18.70;43.00
1259;DHT22;619;51.472;6.628;2023-04-25T16:06:23;18.60;43.70
1259;DHT22;619;51.472;6.628;2023-04-25T16:08:49;18.30;43.80
1259;DHT22;619;51.472;6.628;2023-04-25T16:11:16;18.00;43.90
1259;DHT22;619;51.472;6.628;2023-04-25T16:13:44;17.80;44.90
1259;DHT22;619;51.472;6.628;2023-04-25T16:16:10;17.50;45.50
1259;DHT22;619;51.472;6.628;2023-04-25T16:18:38;17.30;45.80
1259;DHT22;619;51.472;6.628;2023-04-25T16:21:04;17.10;46.60
1259;DHT22;619;51.472;6.628;2023-04-25T16:23:29;16.90;46.50
1259;DHT22;619;51.472;6.628;2023-04-25T16:25:55;16.70;47.00
1259;DHT22;619;51.472;6.628;2023-04-25T16:28:23;16.50;47.80
1259;DHT22;619;51.472;6.628;2023-04-25T16:30:49;16.40;48.00
1259;DHT22;619;51.472;6.628;2023-04-25T16:33:17;16.20;48.20
1259;DHT22;619;51.472;6.628;2023-04-25T16:35:42;16.20;48.80
1259;DHT22;619;51.472;6.628;2023-04-25T16:38:12;16.20;48.80
1259;DHT22;619;51.472;6.628;2023-04-25T16:40:38;16.20;48.90
1259;DHT22;619;51.472;6.628;2023-04-25T16:43:03;16.20;48.80
1259;DHT22;619;51.472;6.628;2023-04-25T16:45:29;16.00;49.00
1259;DHT22;619;51.472;6.628;2023-04-25T16:47:55;16.00;49.40
1259;DHT22;619;51.472;6.628;2023-04-25T16:50:23;15.90;49.60